Terminal Aerodrome Forecast
Issued by NWS

Home | Current Version | Previous Version | Text Only | Print | Product List | Glossary On
Versions: 1 2 3 4 5 6 7 8 9 10 11 12 13 14
000
FTUS45 KBYZ 250540
TAFLVM
TAF
KLVM 250540Z 2506/2606 12006KT P6SM VCSH SCT040 OVC060
     FM250900 26005KT P6SM VCSH SCT020 BKN050
     FM251800 27012KT P6SM VCTS BKN060CB
     FM260300 25007KT P6SM SCT070=

USA.gov is the U.S. government's official web portal to all federal, state and local government web resources and services.